Date,TemperatureHighF,TemperatureAvgF,TemperatureLowF,DewpointHighF,DewpointAvgF,DewpointLowF,HumidityHigh,HumidityAvg,HumidityLow,PressureMaxIn,PressureMinIn,WindSpeedMaxMPH,WindSpeedAvgMPH,GustSpeedMaxMPH,PrecipitationSumIn
2013-2-1,40.6,36.6,28.6,32.0,19.0,6.6,76,50,27,30.43,30.19,13,1,16,0.00
2013-2-2,52.5,36.8,23.7,39.6,24.0,12.9,98,65,25,30.43,30.18,14,0,15,0.20
2013-2-3,55.0,43.5,31.5,41.9,33.0,26.2,98,71,35,30.20,30.04,13,1,13,0.00
2013-2-4,52.2,41.5,31.6,33.4,29.9,26.8,85,65,43,30.19,30.06,12,0,14,0.00
2013-2-5,60.4,48.0,34.2,51.4,42.4,30.9,95,82,63,30.10,30.02,8,0,8,0.00
2013-2-6,65.7,52.6,42.1,49.3,40.2,33.1,99,68,30,30.23,30.08,6,0,6,0.00
2013-2-7,51.6,45.8,43.5,44.4,40.8,34.3,97,84,52,30.19,29.92,8,1,9,0.38
2013-2-8,54.3,47.6,37.8,51.3,44.3,33.1,98,89,68,30.22,29.97,12,1,13,0.01
2013-2-9,60.4,45.0,32.4,37.8,32.1,28.2,90,65,31,30.36,30.19,8,0,9,0.00
2013-2-10,60.3,49.9,42.1,52.0,41.7,30.0,98,74,58,30.36,30.06,10,1,11,0.98
2013-2-11,59.0,53.4,47.7,59.0,53.0,46.4,100,99,91,30.18,30.05,11,0,11,0.98
2013-2-12,53.1,47.5,44.4,47.7,43.9,37.4,99,88,57,30.16,29.89,7,0,7,0.31
2013-2-13,54.0,45.4,38.8,51.3,42.7,34.3,100,90,78,30.02,29.78,13,1,13,0.04
2013-2-14,54.9,43.9,37.2,38.7,34.8,32.0,91,72,44,30.15,30.01,13,1,13,0.00
2013-2-15,61.0,47.0,33.4,43.3,36.2,32.4,99,70,39,30.18,30.03,11,0,13,0.00
2013-2-16,44.1,38.1,29.8,35.4,23.9,12.6,79,58,34,30.21,30.00,18,2,21,0.00
2013-2-17,44.6,34.2,23.5,21.6,16.3,9.3,74,50,26,30.37,30.20,13,1,15,0.00
2013-2-18,57.9,42.4,26.1,31.1,26.3,21.2,86,57,32,30.43,30.19,8,0,8,0.00
2013-2-19,56.7,45.9,39.9,48.6,34.0,20.7,98,67,37,30.20,30.06,11,1,13,0.37
2013-2-20,51.1,41.7,32.7,21.6,16.5,8.1,59,38,18,30.26,30.15,14,1,16,0.00
2013-2-21,63.1,49.2,32.9,45.0,25.2,17.2,84,41,23,30.24,30.01,8,0,9,0.07
2013-2-22,48.6,41.8,40.5,44.2,40.7,39.4,98,96,85,30.20,30.08,9,1,10,1.36
2013-2-23,50.2,45.1,40.3,49.1,44.3,39.7,99,97,92,30.10,29.90,8,0,11,1.00
2013-2-24,62.1,50.0,37.9,47.5,37.9,29.1,99,68,31,30.09,29.96,9,0,11,0.00
2013-2-25,47.8,45.0,39.6,39.0,34.7,31.5,95,68,55,30.09,29.90,15,1,15,0.02
2013-2-26,52.5,42.0,36.3,50.2,39.7,35.6,99,92,75,29.91,29.61,12,1,12,1.30
2013-2-27,59.4,48.4,40.5,40.5,36.3,33.8,81,64,42,29.96,29.84,13,1,13,0.00
2013-2-28,50.9,41.8,34.7,36.7,31.4,26.6,88,67,48,30.05,29.90,15,1,18,0.00